Etusivu
METAR-TAF:

METAR-TAF

Lentoasemat :

Arctic Bay, Nunavut, Kanada

Leveyspiiri: 73-00-23N, Pituuspiiri: 085-02-50W, korkeus merenpinnasta: 22 m

Tämänhetkinen sää

Tämä raportti tehtiin 45 minuuttia sitten, kello 19.00 UTC
tyyntä
Lämpötila -16°C
Kosteus 71%
Ilmanpaine 1025 hPa
Näkyvyys: 48.3 km
Muutamia pilviä 18000 ft:n korkeudessa
Hajanaisia pilviä 22000 ft:n korkeudessa

METAR: CYAB 081900Z 00000KT 30SM FEW180 SCT220 M16/M20 A3026 RMK AS2CI2 SLP251

Aika: 15:45 (19:45 UTC)

Sääennuste

Tämä raportti tehtiin 7 tuntia ja 7 minuuttia sitten, kello 12.38 UTC
Ennuste voimassa 08. päivästä klo 13 UTC - 08. päivään klo 20 UTC
Tuuli 2 kn eri suunnista
Näkyvyys: 10 km
Hajonneita pilviä 22000 ft:n korkeudessa

TAF: CYAB 081238Z 0813/0820 VRB02KT P6SM BKN220 RMK NXT FCST WILL BE ISSUED AT 091245Z

Säähavainnot ja -ennusteet yli 4000 lentoasemalta (METAR- ja TAF-raportit).

Käytössä olevat sääasemat on merkitty karttaan keltaisilla ja punaisilla pisteillä.

Aseta hiiri pisteen päälle nähdäksesi sääaseman nimen.

Klikkaa sitten nähdäksesi säähavainnot ja -ennusteet.

Kartan vaihtaminen: klikkaa mustalla rastilla varustettuja vihreitä pisteitä, niin voit zoomata sisään; viivalla varustettua vihreää pistettä, niin voit zoomata ulos tai vihreitä nuolia, niin pääset viereisille kartoille.


METAR-TAF: